Terminal Aerodrome Forecast
Issued by NWS Bismarck, ND

Home | Current Version | Previous Version | Text Only | Print | Product List | Glossary Off
Versions: 1 2 3 4 5 6 7 8 9 10 11 12 13 14

000
FTUS43 KBIS 030528
TAFBIS
TAF
KBIS 030528Z 0306/0406 VRB03KT P6SM FEW250
     FM031400 30006KT P6SM FEW250
     FM031700 34011KT P6SM FEW250
     FM040000 01008KT P6SM SKC
     FM040400 VRB04KT P6SM SKC=

USA.gov is the U.S. government's official web portal to all federal, state and local government web resources and services.